sensor_id;sensor_type;location;lat;lon;timestamp;P1;durP1;ratioP1;P2;durP2;ratioP2
75537;SDS011;64121;48.666;8.114;2023-01-31T00:00:16;4.75;;;3.08;;
75537;SDS011;64121;48.666;8.114;2023-01-31T00:02:42;4.63;;;2.80;;
75537;SDS011;64121;48.666;8.114;2023-01-31T00:05:07;5.88;;;2.90;;
75537;SDS011;64121;48.666;8.114;2023-01-31T00:07:33;4.88;;;2.75;;
75537;SDS011;64121;48.666;8.114;2023-01-31T00:10:00;4.35;;;2.63;;
75537;SDS011;64121;48.666;8.114;2023-01-31T00:12:25;5.53;;;3.03;;
75537;SDS011;64121;48.666;8.114;2023-01-31T00:14:51;4.15;;;2.85;;
75537;SDS011;64121;48.666;8.114;2023-01-31T00:17:16;5.10;;;3.08;;
75537;SDS011;64121;48.666;8.114;2023-01-31T00:19:41;4.13;;;2.50;;
75537;SDS011;64121;48.666;8.114;2023-01-31T00:22:07;4.32;;;2.70;;
75537;SDS011;64121;48.666;8.114;2023-01-31T00:24:32;5.03;;;2.97;;
75537;SDS011;64121;48.666;8.114;2023-01-31T00:26:59;5.10;;;2.75;;
75537;SDS011;64121;48.666;8.114;2023-01-31T00:29:24;4.90;;;2.85;;
75537;SDS011;64121;48.666;8.114;2023-01-31T00:31:50;4.93;;;2.75;;
75537;SDS011;64121;48.666;8.114;2023-01-31T00:34:16;6.40;;;3.50;;
75537;SDS011;64121;48.666;8.114;2023-01-31T00:36:41;7.32;;;4.05;;
75537;SDS011;64121;48.666;8.114;2023-01-31T00:39:07;6.55;;;3.88;;
75537;SDS011;64121;48.666;8.114;2023-01-31T00:41:33;5.30;;;3.03;;
75537;SDS011;64121;48.666;8.114;2023-01-31T00:44:01;5.50;;;3.33;;
75537;SDS011;64121;48.666;8.114;2023-01-31T00:46:27;4.40;;;2.78;;
75537;SDS011;64121;48.666;8.114;2023-01-31T00:48:53;5.13;;;3.45;;
75537;SDS011;64121;48.666;8.114;2023-01-31T00:51:19;5.80;;;3.50;;
75537;SDS011;64121;48.666;8.114;2023-01-31T00:53:45;5.82;;;3.28;;
75537;SDS011;64121;48.666;8.114;2023-01-31T00:56:11;4.60;;;2.88;;
75537;SDS011;64121;48.666;8.114;2023-01-31T00:58:39;4.35;;;3.05;;
75537;SDS011;64121;48.666;8.114;2023-01-31T01:01:07;5.15;;;3.10;;
75537;SDS011;64121;48.666;8.114;2023-01-31T01:03:34;5.10;;;3.58;;
75537;SDS011;64121;48.666;8.114;2023-01-31T01:06:00;5.05;;;3.33;;
75537;SDS011;64121;48.666;8.114;2023-01-31T01:08:25;4.78;;;3.08;;
75537;SDS011;64121;48.666;8.114;2023-01-31T01:10:51;6.03;;;3.28;;
75537;SDS011;64121;48.666;8.114;2023-01-31T01:13:17;4.30;;;3.10;;
75537;SDS011;64121;48.666;8.114;2023-01-31T01:15:42;5.10;;;3.40;;
75537;SDS011;64121;48.666;8.114;2023-01-31T01:18:09;7.50;;;3.65;;
75537;SDS011;64121;48.666;8.114;2023-01-31T01:20:34;6.47;;;3.92;;
75537;SDS011;64121;48.666;8.114;2023-01-31T01:23:00;5.78;;;3.60;;
75537;SDS011;64121;48.666;8.114;2023-01-31T01:25:25;7.40;;;3.63;;
75537;SDS011;64121;48.666;8.114;2023-01-31T01:27:50;6.85;;;4.00;;
75537;SDS011;64121;48.666;8.114;2023-01-31T01:30:16;5.78;;;3.30;;
75537;SDS011;64121;48.666;8.114;2023-01-31T01:32:42;5.22;;;3.65;;
75537;SDS011;64121;48.666;8.114;2023-01-31T01:35:08;5.18;;;3.72;;
75537;SDS011;64121;48.666;8.114;2023-01-31T01:37:34;6.55;;;3.65;;
75537;SDS011;64121;48.666;8.114;2023-01-31T01:39:59;7.72;;;4.07;;
75537;SDS011;64121;48.666;8.114;2023-01-31T01:42:25;5.78;;;3.85;;
75537;SDS011;64121;48.666;8.114;2023-01-31T01:44:52;7.05;;;3.65;;
75537;SDS011;64121;48.666;8.114;2023-01-31T01:50:03;5.28;;;3.33;;
75537;SDS011;64121;48.666;8.114;2023-01-31T01:52:36;6.13;;;3.85;;
75537;SDS011;64121;48.666;8.114;2023-01-31T01:55:09;7.68;;;4.00;;
75537;SDS011;64121;48.666;8.114;2023-01-31T01:57:40;6.10;;;3.88;;
75537;SDS011;64121;48.666;8.114;2023-01-31T02:00:12;6.03;;;3.70;;
75537;SDS011;64121;48.666;8.114;2023-01-31T02:02:39;6.65;;;4.15;;
75537;SDS011;64121;48.666;8.114;2023-01-31T02:05:07;6.57;;;4.18;;
75537;SDS011;64121;48.666;8.114;2023-01-31T02:07:34;6.65;;;3.75;;
75537;SDS011;64121;48.666;8.114;2023-01-31T02:10:00;6.43;;;4.15;;
75537;SDS011;64121;48.666;8.114;2023-01-31T02:12:28;7.38;;;4.10;;
75537;SDS011;64121;48.666;8.114;2023-01-31T02:14:56;7.18;;;4.35;;
75537;SDS011;64121;48.666;8.114;2023-01-31T02:17:21;7.28;;;4.47;;
75537;SDS011;64121;48.666;8.114;2023-01-31T02:19:51;6.50;;;4.38;;
75537;SDS011;64121;48.666;8.114;2023-01-31T02:22:25;7.25;;;4.20;;
75537;SDS011;64121;48.666;8.114;2023-01-31T02:28:18;6.78;;;4.32;;
75537;SDS011;64121;48.666;8.114;2023-01-31T02:31:08;8.20;;;4.20;;
75537;SDS011;64121;48.666;8.114;2023-01-31T02:33:59;5.95;;;3.95;;
75537;SDS011;64121;48.666;8.114;2023-01-31T02:36:34;6.47;;;4.03;;
75537;SDS011;64121;48.666;8.114;2023-01-31T02:39:12;7.90;;;4.25;;
75537;SDS011;64121;48.666;8.114;2023-01-31T02:41:48;7.28;;;4.22;;
75537;SDS011;64121;48.666;8.114;2023-01-31T02:44:19;7.22;;;4.70;;
75537;SDS011;64121;48.666;8.114;2023-01-31T02:46:49;6.78;;;4.13;;
75537;SDS011;64121;48.666;8.114;2023-01-31T02:49:21;7.25;;;4.35;;
75537;SDS011;64121;48.666;8.114;2023-01-31T02:51:51;8.05;;;4.25;;
75537;SDS011;64121;48.666;8.114;2023-01-31T02:54:19;8.55;;;4.63;;
75537;SDS011;64121;48.666;8.114;2023-01-31T02:56:49;7.30;;;4.45;;
75537;SDS011;64121;48.666;8.114;2023-01-31T02:59:18;7.03;;;4.82;;
75537;SDS011;64121;48.666;8.114;2023-01-31T03:01:47;8.30;;;4.88;;
75537;SDS011;64121;48.666;8.114;2023-01-31T03:04:21;8.77;;;4.60;;
75537;SDS011;64121;48.666;8.114;2023-01-31T03:09:38;8.10;;;4.55;;
75537;SDS011;64121;48.666;8.114;2023-01-31T03:12:16;6.20;;;4.38;;
75537;SDS011;64121;48.666;8.114;2023-01-31T03:14:53;6.53;;;4.00;;
75537;SDS011;64121;48.666;8.114;2023-01-31T03:17:31;10.10;;;4.60;;
75537;SDS011;64121;48.666;8.114;2023-01-31T03:20:09;8.50;;;5.03;;
75537;SDS011;64121;48.666;8.114;2023-01-31T03:22:37;7.13;;;4.80;;
75537;SDS011;64121;48.666;8.114;2023-01-31T03:25:06;7.20;;;4.78;;
75537;SDS011;64121;48.666;8.114;2023-01-31T03:27:34;8.75;;;4.80;;
75537;SDS011;64121;48.666;8.114;2023-01-31T03:30:04;8.13;;;4.32;;
75537;SDS011;64121;48.666;8.114;2023-01-31T03:32:35;9.52;;;5.28;;
75537;SDS011;64121;48.666;8.114;2023-01-31T03:35:05;6.55;;;4.60;;
75537;SDS011;64121;48.666;8.114;2023-01-31T03:37:35;7.28;;;4.43;;
75537;SDS011;64121;48.666;8.114;2023-01-31T03:40:04;7.13;;;4.75;;
75537;SDS011;64121;48.666;8.114;2023-01-31T03:42:36;7.68;;;4.82;;
75537;SDS011;64121;48.666;8.114;2023-01-31T03:45:07;7.68;;;4.88;;
75537;SDS011;64121;48.666;8.114;2023-01-31T03:47:36;8.25;;;4.43;;
75537;SDS011;64121;48.666;8.114;2023-01-31T03:50:06;6.72;;;4.53;;
75537;SDS011;64121;48.666;8.114;2023-01-31T03:52:37;6.70;;;4.53;;
75537;SDS011;64121;48.666;8.114;2023-01-31T03:55:09;6.20;;;4.35;;
75537;SDS011;64121;48.666;8.114;2023-01-31T03:57:39;7.55;;;4.38;;
75537;SDS011;64121;48.666;8.114;2023-01-31T04:00:08;7.57;;;4.82;;
75537;SDS011;64121;48.666;8.114;2023-01-31T04:02:36;7.32;;;4.35;;
75537;SDS011;64121;48.666;8.114;2023-01-31T04:05:03;8.40;;;4.57;;
75537;SDS011;64121;48.666;8.114;2023-01-31T04:07:31;6.47;;;4.20;;
75537;SDS011;64121;48.666;8.114;2023-01-31T04:09:58;7.80;;;4.75;;
75537;SDS011;64121;48.666;8.114;2023-01-31T04:12:24;5.90;;;4.18;;
75537;SDS011;64121;48.666;8.114;2023-01-31T04:14:49;5.80;;;4.75;;
75537;SDS011;64121;48.666;8.114;2023-01-31T04:17:15;7.88;;;4.85;;
75537;SDS011;64121;48.666;8.114;2023-01-31T04:19:40;6.50;;;4.15;;
75537;SDS011;64121;48.666;8.114;2023-01-31T04:22:05;6.05;;;4.25;;
75537;SDS011;64121;48.666;8.114;2023-01-31T04:24:31;8.15;;;4.47;;
75537;SDS011;64121;48.666;8.114;2023-01-31T04:26:58;7.55;;;4.28;;
75537;SDS011;64121;48.666;8.114;2023-01-31T04:29:23;7.35;;;4.90;;
75537;SDS011;64121;48.666;8.114;2023-01-31T04:31:48;8.00;;;4.20;;
75537;SDS011;64121;48.666;8.114;2023-01-31T04:34:14;6.60;;;4.28;;
75537;SDS011;64121;48.666;8.114;2023-01-31T04:36:39;6.18;;;4.35;;
75537;SDS011;64121;48.666;8.114;2023-01-31T04:39:04;6.55;;;4.22;;
75537;SDS011;64121;48.666;8.114;2023-01-31T04:41:30;7.65;;;4.78;;
75537;SDS011;64121;48.666;8.114;2023-01-31T04:43:57;8.13;;;5.07;;
75537;SDS011;64121;48.666;8.114;2023-01-31T04:46:22;7.55;;;4.30;;
75537;SDS011;64121;48.666;8.114;2023-01-31T04:48:47;7.40;;;5.13;;
75537;SDS011;64121;48.666;8.114;2023-01-31T04:51:13;8.32;;;4.47;;
75537;SDS011;64121;48.666;8.114;2023-01-31T04:53:38;8.07;;;4.55;;
75537;SDS011;64121;48.666;8.114;2023-01-31T04:56:04;8.70;;;4.65;;
75537;SDS011;64121;48.666;8.114;2023-01-31T04:58:29;7.53;;;5.07;;
75537;SDS011;64121;48.666;8.114;2023-01-31T05:00:56;8.40;;;4.90;;
75537;SDS011;64121;48.666;8.114;2023-01-31T05:03:21;7.22;;;4.78;;
75537;SDS011;64121;48.666;8.114;2023-01-31T05:05:47;7.80;;;4.80;;
75537;SDS011;64121;48.666;8.114;2023-01-31T05:08:12;9.98;;;5.50;;
75537;SDS011;64121;48.666;8.114;2023-01-31T05:10:38;6.32;;;4.18;;
75537;SDS011;64121;48.666;8.114;2023-01-31T05:13:03;8.60;;;4.90;;
75537;SDS011;64121;48.666;8.114;2023-01-31T05:15:29;7.18;;;5.03;;
75537;SDS011;64121;48.666;8.114;2023-01-31T05:17:56;6.45;;;4.72;;
75537;SDS011;64121;48.666;8.114;2023-01-31T05:20:22;7.00;;;4.75;;
75537;SDS011;64121;48.666;8.114;2023-01-31T05:22:47;9.48;;;4.70;;
75537;SDS011;64121;48.666;8.114;2023-01-31T05:25:13;6.80;;;4.82;;
75537;SDS011;64121;48.666;8.114;2023-01-31T05:27:39;8.15;;;5.43;;
75537;SDS011;64121;48.666;8.114;2023-01-31T05:30:05;7.38;;;5.38;;
75537;SDS011;64121;48.666;8.114;2023-01-31T05:32:31;8.35;;;5.53;;
75537;SDS011;64121;48.666;8.114;2023-01-31T05:34:58;10.00;;;5.82;;
75537;SDS011;64121;48.666;8.114;2023-01-31T05:37:23;8.45;;;5.55;;
75537;SDS011;64121;48.666;8.114;2023-01-31T05:39:48;9.55;;;6.03;;
75537;SDS011;64121;48.666;8.114;2023-01-31T05:42:14;10.73;;;6.22;;
75537;SDS011;64121;48.666;8.114;2023-01-31T05:44:39;8.40;;;5.57;;
75537;SDS011;64121;48.666;8.114;2023-01-31T05:47:04;9.57;;;5.68;;
75537;SDS011;64121;48.666;8.114;2023-01-31T05:49:30;8.85;;;5.85;;
75537;SDS011;64121;48.666;8.114;2023-01-31T05:51:56;8.15;;;5.45;;
75537;SDS011;64121;48.666;8.114;2023-01-31T05:54:22;8.50;;;5.95;;
75537;SDS011;64121;48.666;8.114;2023-01-31T05:56:47;9.55;;;5.70;;
75537;SDS011;64121;48.666;8.114;2023-01-31T05:59:12;8.63;;;5.68;;
75537;SDS011;64121;48.666;8.114;2023-01-31T06:01:38;9.02;;;5.75;;
75537;SDS011;64121;48.666;8.114;2023-01-31T06:04:03;9.27;;;6.00;;
75537;SDS011;64121;48.666;8.114;2023-01-31T06:06:28;12.50;;;6.65;;
75537;SDS011;64121;48.666;8.114;2023-01-31T06:08:55;15.13;;;8.35;;
75537;SDS011;64121;48.666;8.114;2023-01-31T06:11:20;11.88;;;7.22;;
75537;SDS011;64121;48.666;8.114;2023-01-31T06:13:46;12.13;;;7.05;;
75537;SDS011;64121;48.666;8.114;2023-01-31T06:16:11;12.88;;;8.27;;
75537;SDS011;64121;48.666;8.114;2023-01-31T06:18:36;13.80;;;7.20;;
75537;SDS011;64121;48.666;8.114;2023-01-31T06:21:02;15.55;;;8.48;;
75537;SDS011;64121;48.666;8.114;2023-01-31T06:23:28;15.60;;;8.55;;
75537;SDS011;64121;48.666;8.114;2023-01-31T06:25:54;11.02;;;6.63;;
75537;SDS011;64121;48.666;8.114;2023-01-31T06:28:20;9.25;;;6.20;;
75537;SDS011;64121;48.666;8.114;2023-01-31T06:30:46;15.20;;;7.57;;
75537;SDS011;64121;48.666;8.114;2023-01-31T06:33:12;28.63;;;13.60;;
75537;SDS011;64121;48.666;8.114;2023-01-31T06:35:38;24.55;;;10.70;;
75537;SDS011;64121;48.666;8.114;2023-01-31T06:38:03;12.60;;;6.22;;
75537;SDS011;64121;48.666;8.114;2023-01-31T06:40:29;11.82;;;6.47;;
75537;SDS011;64121;48.666;8.114;2023-01-31T06:42:56;12.10;;;7.30;;
75537;SDS011;64121;48.666;8.114;2023-01-31T06:45:21;9.40;;;5.95;;
75537;SDS011;64121;48.666;8.114;2023-01-31T06:47:47;12.02;;;6.30;;
75537;SDS011;64121;48.666;8.114;2023-01-31T06:50:12;8.60;;;5.70;;
75537;SDS011;64121;48.666;8.114;2023-01-31T06:52:38;10.40;;;6.65;;
75537;SDS011;64121;48.666;8.114;2023-01-31T06:55:03;8.40;;;5.35;;
75537;SDS011;64121;48.666;8.114;2023-01-31T06:57:29;11.65;;;6.22;;
75537;SDS011;64121;48.666;8.114;2023-01-31T06:59:56;9.18;;;6.47;;
75537;SDS011;64121;48.666;8.114;2023-01-31T07:02:21;8.32;;;5.93;;
75537;SDS011;64121;48.666;8.114;2023-01-31T07:04:46;12.20;;;7.53;;
75537;SDS011;64121;48.666;8.114;2023-01-31T07:07:12;11.15;;;7.65;;
75537;SDS011;64121;48.666;8.114;2023-01-31T07:09:37;16.08;;;9.15;;
75537;SDS011;64121;48.666;8.114;2023-01-31T07:12:03;17.90;;;10.40;;
75537;SDS011;64121;48.666;8.114;2023-01-31T07:14:28;17.70;;;10.40;;
75537;SDS011;64121;48.666;8.114;2023-01-31T07:16:55;12.65;;;7.35;;
75537;SDS011;64121;48.666;8.114;2023-01-31T07:19:20;11.95;;;8.40;;
75537;SDS011;64121;48.666;8.114;2023-01-31T07:21:46;13.13;;;7.05;;
75537;SDS011;64121;48.666;8.114;2023-01-31T07:24:11;13.73;;;6.93;;
75537;SDS011;64121;48.666;8.114;2023-01-31T07:26:36;10.60;;;6.40;;
75537;SDS011;64121;48.666;8.114;2023-01-31T07:29:02;10.43;;;6.45;;
75537;SDS011;64121;48.666;8.114;2023-01-31T07:31:27;14.35;;;7.30;;
75537;SDS011;64121;48.666;8.114;2023-01-31T07:33:54;11.13;;;6.20;;
75537;SDS011;64121;48.666;8.114;2023-01-31T07:36:19;12.00;;;6.55;;
75537;SDS011;64121;48.666;8.114;2023-01-31T07:38:44;11.65;;;7.35;;
75537;SDS011;64121;48.666;8.114;2023-01-31T07:41:10;11.50;;;6.68;;
75537;SDS011;64121;48.666;8.114;2023-01-31T07:43:35;13.07;;;6.95;;
75537;SDS011;64121;48.666;8.114;2023-01-31T07:46:01;10.80;;;6.63;;
75537;SDS011;64121;48.666;8.114;2023-01-31T07:48:29;12.38;;;7.10;;
75537;SDS011;64121;48.666;8.114;2023-01-31T07:50:59;9.75;;;6.82;;
75537;SDS011;64121;48.666;8.114;2023-01-31T07:53:26;14.00;;;7.45;;
75537;SDS011;64121;48.666;8.114;2023-01-31T07:55:52;11.52;;;6.65;;
75537;SDS011;64121;48.666;8.114;2023-01-31T07:58:17;11.18;;;6.63;;
75537;SDS011;64121;48.666;8.114;2023-01-31T08:00:43;10.38;;;6.55;;
75537;SDS011;64121;48.666;8.114;2023-01-31T08:03:13;12.40;;;6.72;;
75537;SDS011;64121;48.666;8.114;2023-01-31T08:05:48;9.43;;;6.45;;
75537;SDS011;64121;48.666;8.114;2023-01-31T08:08:14;8.02;;;6.07;;
75537;SDS011;64121;48.666;8.114;2023-01-31T08:10:40;8.68;;;6.20;;
75537;SDS011;64121;48.666;8.114;2023-01-31T08:13:05;11.43;;;5.93;;
75537;SDS011;64121;48.666;8.114;2023-01-31T08:15:30;7.55;;;5.50;;
75537;SDS011;64121;48.666;8.114;2023-01-31T08:17:56;9.93;;;5.97;;
75537;SDS011;64121;48.666;8.114;2023-01-31T08:20:21;8.65;;;6.13;;
75537;SDS011;64121;48.666;8.114;2023-01-31T08:22:47;9.07;;;6.35;;
75537;SDS011;64121;48.666;8.114;2023-01-31T08:25:13;10.85;;;6.47;;
75537;SDS011;64121;48.666;8.114;2023-01-31T08:27:39;10.15;;;6.47;;
75537;SDS011;64121;48.666;8.114;2023-01-31T08:30:05;11.20;;;6.18;;
75537;SDS011;64121;48.666;8.114;2023-01-31T08:32:31;11.80;;;5.97;;
75537;SDS011;64121;48.666;8.114;2023-01-31T08:34:56;9.18;;;5.80;;
75537;SDS011;64121;48.666;8.114;2023-01-31T08:37:22;12.40;;;6.10;;
75537;SDS011;64121;48.666;8.114;2023-01-31T08:39:47;9.82;;;6.15;;
75537;SDS011;64121;48.666;8.114;2023-01-31T08:42:14;9.80;;;6.22;;
75537;SDS011;64121;48.666;8.114;2023-01-31T08:44:39;11.32;;;6.43;;
75537;SDS011;64121;48.666;8.114;2023-01-31T08:47:04;12.07;;;6.38;;
75537;SDS011;64121;48.666;8.114;2023-01-31T08:49:30;9.63;;;6.28;;
75537;SDS011;64121;48.666;8.114;2023-01-31T08:51:55;8.60;;;6.13;;
75537;SDS011;64121;48.666;8.114;2023-01-31T08:54:20;11.88;;;7.47;;
75537;SDS011;64121;48.666;8.114;2023-01-31T08:56:46;12.25;;;7.22;;
75537;SDS011;64121;48.666;8.114;2023-01-31T08:59:12;10.18;;;6.95;;
75537;SDS011;64121;48.666;8.114;2023-01-31T09:01:38;13.02;;;7.72;;
75537;SDS011;64121;48.666;8.114;2023-01-31T09:04:03;14.80;;;8.15;;
75537;SDS011;64121;48.666;8.114;2023-01-31T09:06:29;12.65;;;7.68;;
75537;SDS011;64121;48.666;8.114;2023-01-31T09:08:55;11.10;;;7.10;;
75537;SDS011;64121;48.666;8.114;2023-01-31T09:11:21;11.90;;;7.93;;
75537;SDS011;64121;48.666;8.114;2023-01-31T09:13:46;11.05;;;7.20;;
75537;SDS011;64121;48.666;8.114;2023-01-31T09:16:13;11.68;;;7.45;;
75537;SDS011;64121;48.666;8.114;2023-01-31T09:18:39;14.25;;;7.95;;
75537;SDS011;64121;48.666;8.114;2023-01-31T09:21:05;14.18;;;8.18;;
75537;SDS011;64121;48.666;8.114;2023-01-31T09:23:31;12.60;;;8.18;;
75537;SDS011;64121;48.666;8.114;2023-01-31T09:25:57;14.43;;;8.35;;
75537;SDS011;64121;48.666;8.114;2023-01-31T09:28:23;13.93;;;8.00;;
75537;SDS011;64121;48.666;8.114;2023-01-31T09:30:49;17.85;;;8.85;;
75537;SDS011;64121;48.666;8.114;2023-01-31T09:33:16;13.30;;;7.22;;
75537;SDS011;64121;48.666;8.114;2023-01-31T09:35:41;12.32;;;7.82;;
75537;SDS011;64121;48.666;8.114;2023-01-31T09:38:07;16.33;;;8.45;;
75537;SDS011;64121;48.666;8.114;2023-01-31T09:40:32;14.05;;;7.32;;
75537;SDS011;64121;48.666;8.114;2023-01-31T09:43:02;13.55;;;7.82;;
75537;SDS011;64121;48.666;8.114;2023-01-31T09:45:28;13.73;;;7.72;;
75537;SDS011;64121;48.666;8.114;2023-01-31T09:47:56;12.35;;;8.02;;
75537;SDS011;64121;48.666;8.114;2023-01-31T09:50:26;13.38;;;7.57;;
75537;SDS011;64121;48.666;8.114;2023-01-31T09:55:24;13.05;;;7.28;;
75537;SDS011;64121;48.666;8.114;2023-01-31T09:57:55;13.73;;;7.47;;
75537;SDS011;64121;48.666;8.114;2023-01-31T10:00:29;12.45;;;7.30;;
75537;SDS011;64121;48.666;8.114;2023-01-31T10:03:00;12.77;;;7.32;;
75537;SDS011;64121;48.666;8.114;2023-01-31T10:05:41;11.50;;;6.60;;
75537;SDS011;64121;48.666;8.114;2023-01-31T10:08:14;12.13;;;7.00;;
75537;SDS011;64121;48.666;8.114;2023-01-31T10:13:16;9.40;;;6.13;;
75537;SDS011;64121;48.666;8.114;2023-01-31T10:15:48;10.10;;;6.05;;
75537;SDS011;64121;48.666;8.114;2023-01-31T10:18:20;10.55;;;6.72;;
75537;SDS011;64121;48.666;8.114;2023-01-31T10:20:51;10.60;;;6.30;;
75537;SDS011;64121;48.666;8.114;2023-01-31T10:23:22;11.90;;;6.88;;
75537;SDS011;64121;48.666;8.114;2023-01-31T10:25:53;12.02;;;7.00;;
75537;SDS011;64121;48.666;8.114;2023-01-31T10:28:23;12.65;;;6.72;;
75537;SDS011;64121;48.666;8.114;2023-01-31T10:30:55;12.60;;;7.05;;
75537;SDS011;64121;48.666;8.114;2023-01-31T10:33:24;10.25;;;6.47;;
75537;SDS011;64121;48.666;8.114;2023-01-31T10:35:59;12.98;;;6.93;;
75537;SDS011;64121;48.666;8.114;2023-01-31T10:38:29;11.13;;;7.00;;
75537;SDS011;64121;48.666;8.114;2023-01-31T10:40:57;10.57;;;6.97;;
75537;SDS011;64121;48.666;8.114;2023-01-31T10:43:32;12.95;;;6.53;;
75537;SDS011;64121;48.666;8.114;2023-01-31T10:46:06;10.35;;;6.57;;
75537;SDS011;64121;48.666;8.114;2023-01-31T10:48:34;13.27;;;6.35;;
75537;SDS011;64121;48.666;8.114;2023-01-31T10:51:04;13.10;;;7.22;;
75537;SDS011;64121;48.666;8.114;2023-01-31T10:53:41;11.25;;;6.72;;
75537;SDS011;64121;48.666;8.114;2023-01-31T10:56:18;10.45;;;6.47;;
75537;SDS011;64121;48.666;8.114;2023-01-31T10:58:50;9.27;;;6.45;;
75537;SDS011;64121;48.666;8.114;2023-01-31T11:01:16;12.35;;;6.40;;
75537;SDS011;64121;48.666;8.114;2023-01-31T11:03:44;13.63;;;8.10;;
75537;SDS011;64121;48.666;8.114;2023-01-31T11:06:14;10.50;;;7.05;;
75537;SDS011;64121;48.666;8.114;2023-01-31T11:08:41;13.10;;;6.85;;
75537;SDS011;64121;48.666;8.114;2023-01-31T11:11:10;9.82;;;6.43;;
75537;SDS011;64121;48.666;8.114;2023-01-31T11:13:37;12.90;;;6.97;;
75537;SDS011;64121;48.666;8.114;2023-01-31T11:16:03;12.43;;;6.78;;
75537;SDS011;64121;48.666;8.114;2023-01-31T11:18:32;12.70;;;7.15;;
75537;SDS011;64121;48.666;8.114;2023-01-31T11:21:00;12.05;;;6.10;;
75537;SDS011;64121;48.666;8.114;2023-01-31T11:23:30;12.80;;;6.57;;
75537;SDS011;64121;48.666;8.114;2023-01-31T11:25:58;10.77;;;7.13;;
75537;SDS011;64121;48.666;8.114;2023-01-31T11:28:26;12.60;;;6.13;;
75537;SDS011;64121;48.666;8.114;2023-01-31T11:30:58;13.27;;;6.68;;
75537;SDS011;64121;48.666;8.114;2023-01-31T11:33:38;10.82;;;6.63;;
75537;SDS011;64121;48.666;8.114;2023-01-31T11:36:09;10.18;;;6.25;;
75537;SDS011;64121;48.666;8.114;2023-01-31T11:38:37;9.10;;;6.45;;
75537;SDS011;64121;48.666;8.114;2023-01-31T11:41:06;10.60;;;6.07;;
75537;SDS011;64121;48.666;8.114;2023-01-31T11:44:00;10.45;;;6.60;;
75537;SDS011;64121;48.666;8.114;2023-01-31T11:46:30;10.50;;;6.43;;
75537;SDS011;64121;48.666;8.114;2023-01-31T11:48:57;11.32;;;5.60;;
75537;SDS011;64121;48.666;8.114;2023-01-31T11:51:23;10.32;;;5.80;;
75537;SDS011;64121;48.666;8.114;2023-01-31T11:53:53;9.68;;;5.80;;
75537;SDS011;64121;48.666;8.114;2023-01-31T11:56:21;11.43;;;6.43;;
75537;SDS011;64121;48.666;8.114;2023-01-31T11:58:51;9.55;;;6.20;;
75537;SDS011;64121;48.666;8.114;2023-01-31T12:01:20;10.27;;;5.28;;
75537;SDS011;64121;48.666;8.114;2023-01-31T12:03:48;10.27;;;5.10;;
75537;SDS011;64121;48.666;8.114;2023-01-31T12:06:25;9.85;;;4.93;;
75537;SDS011;64121;48.666;8.114;2023-01-31T12:08:54;11.48;;;6.20;;
75537;SDS011;64121;48.666;8.114;2023-01-31T12:11:25;10.82;;;4.57;;
75537;SDS011;64121;48.666;8.114;2023-01-31T12:13:53;10.15;;;6.45;;
75537;SDS011;64121;48.666;8.114;2023-01-31T12:18:55;7.60;;;4.60;;
75537;SDS011;64121;48.666;8.114;2023-01-31T12:21:44;12.20;;;5.53;;
75537;SDS011;64121;48.666;8.114;2023-01-31T12:24:20;14.13;;;7.50;;
75537;SDS011;64121;48.666;8.114;2023-01-31T12:26:58;6.95;;;4.32;;
75537;SDS011;64121;48.666;8.114;2023-01-31T12:29:37;8.38;;;4.55;;
75537;SDS011;64121;48.666;8.114;2023-01-31T12:32:23;6.97;;;4.22;;
75537;SDS011;64121;48.666;8.114;2023-01-31T12:35:03;6.65;;;3.95;;
75537;SDS011;64121;48.666;8.114;2023-01-31T12:37:53;7.55;;;3.80;;
75537;SDS011;64121;48.666;8.114;2023-01-31T12:40:38;8.05;;;3.67;;
75537;SDS011;64121;48.666;8.114;2023-01-31T12:43:11;6.15;;;3.80;;
75537;SDS011;64121;48.666;8.114;2023-01-31T12:45:47;6.35;;;3.95;;
75537;SDS011;64121;48.666;8.114;2023-01-31T12:48:24;5.78;;;3.75;;
75537;SDS011;64121;48.666;8.114;2023-01-31T12:51:01;6.63;;;3.75;;
75537;SDS011;64121;48.666;8.114;2023-01-31T12:53:40;6.65;;;3.70;;
75537;SDS011;64121;48.666;8.114;2023-01-31T12:56:20;5.88;;;3.65;;
75537;SDS011;64121;48.666;8.114;2023-01-31T12:58:56;10.07;;;3.22;;
75537;SDS011;64121;48.666;8.114;2023-01-31T13:01:30;5.65;;;3.42;;
75537;SDS011;64121;48.666;8.114;2023-01-31T13:04:09;5.38;;;2.90;;
75537;SDS011;64121;48.666;8.114;2023-01-31T13:06:50;5.47;;;3.30;;
75537;SDS011;64121;48.666;8.114;2023-01-31T13:09:18;8.07;;;3.63;;
75537;SDS011;64121;48.666;8.114;2023-01-31T13:11:48;7.63;;;3.42;;
75537;SDS011;64121;48.666;8.114;2023-01-31T13:14:20;6.57;;;3.65;;
75537;SDS011;64121;48.666;8.114;2023-01-31T13:16:50;6.65;;;3.92;;
75537;SDS011;64121;48.666;8.114;2023-01-31T13:19:18;5.28;;;3.55;;
75537;SDS011;64121;48.666;8.114;2023-01-31T13:21:48;9.20;;;3.67;;
75537;SDS011;64121;48.666;8.114;2023-01-31T13:24:19;6.95;;;2.97;;
75537;SDS011;64121;48.666;8.114;2023-01-31T13:26:50;7.53;;;3.92;;
75537;SDS011;64121;48.666;8.114;2023-01-31T13:29:21;7.30;;;3.92;;
75537;SDS011;64121;48.666;8.114;2023-01-31T13:31:52;7.18;;;3.92;;
75537;SDS011;64121;48.666;8.114;2023-01-31T13:34:23;6.60;;;3.42;;
75537;SDS011;64121;48.666;8.114;2023-01-31T13:36:54;9.38;;;3.45;;
75537;SDS011;64121;48.666;8.114;2023-01-31T13:39:22;7.90;;;3.42;;
75537;SDS011;64121;48.666;8.114;2023-01-31T13:41:52;5.15;;;3.03;;
75537;SDS011;64121;48.666;8.114;2023-01-31T13:44:17;7.22;;;4.20;;
75537;SDS011;64121;48.666;8.114;2023-01-31T13:46:44;7.70;;;4.25;;
75537;SDS011;64121;48.666;8.114;2023-01-31T13:49:15;5.60;;;3.20;;
75537;SDS011;64121;48.666;8.114;2023-01-31T13:51:48;8.20;;;3.10;;
75537;SDS011;64121;48.666;8.114;2023-01-31T13:54:17;7.13;;;4.13;;
75537;SDS011;64121;48.666;8.114;2023-01-31T13:56:48;9.50;;;3.92;;
75537;SDS011;64121;48.666;8.114;2023-01-31T13:59:19;6.18;;;3.58;;
75537;SDS011;64121;48.666;8.114;2023-01-31T14:01:47;6.22;;;3.40;;
75537;SDS011;64121;48.666;8.114;2023-01-31T14:12:44;5.70;;;3.15;;
75537;SDS011;64121;48.666;8.114;2023-01-31T14:18:09;4.82;;;2.85;;
75537;SDS011;64121;48.666;8.114;2023-01-31T14:20:35;4.15;;;2.65;;
75537;SDS011;64121;48.666;8.114;2023-01-31T14:25:53;7.75;;;2.70;;
75537;SDS011;64121;48.666;8.114;2023-01-31T14:28:19;6.78;;;3.42;;
75537;SDS011;64121;48.666;8.114;2023-01-31T14:30:45;6.13;;;2.67;;
75537;SDS011;64121;48.666;8.114;2023-01-31T14:33:17;4.68;;;2.75;;
75537;SDS011;64121;48.666;8.114;2023-01-31T14:36:06;6.78;;;3.15;;
75537;SDS011;64121;48.666;8.114;2023-01-31T14:39:12;7.50;;;3.63;;
75537;SDS011;64121;48.666;8.114;2023-01-31T14:41:58;6.65;;;3.05;;
75537;SDS011;64121;48.666;8.114;2023-01-31T14:44:54;5.30;;;3.00;;
75537;SDS011;64121;48.666;8.114;2023-01-31T14:47:31;4.55;;;3.00;;
75537;SDS011;64121;48.666;8.114;2023-01-31T14:50:15;4.70;;;3.08;;
75537;SDS011;64121;48.666;8.114;2023-01-31T14:53:05;9.63;;;3.28;;
75537;SDS011;64121;48.666;8.114;2023-01-31T14:55:46;4.93;;;3.63;;
75537;SDS011;64121;48.666;8.114;2023-01-31T14:58:25;8.10;;;3.78;;
75537;SDS011;64121;48.666;8.114;2023-01-31T15:00:54;7.47;;;3.50;;
75537;SDS011;64121;48.666;8.114;2023-01-31T15:03:22;8.27;;;3.40;;
75537;SDS011;64121;48.666;8.114;2023-01-31T15:05:51;6.93;;;4.28;;
75537;SDS011;64121;48.666;8.114;2023-01-31T15:08:39;6.55;;;4.18;;
75537;SDS011;64121;48.666;8.114;2023-01-31T15:11:06;11.60;;;4.88;;
75537;SDS011;64121;48.666;8.114;2023-01-31T15:13:40;6.20;;;3.25;;
75537;SDS011;64121;48.666;8.114;2023-01-31T15:16:10;5.43;;;3.30;;
75537;SDS011;64121;48.666;8.114;2023-01-31T15:18:43;5.38;;;3.17;;
75537;SDS011;64121;48.666;8.114;2023-01-31T15:21:13;7.38;;;3.78;;
75537;SDS011;64121;48.666;8.114;2023-01-31T15:23:45;5.15;;;3.20;;